x

Tanner Bank - 121nm West Of San Diego, Ca (46047) Wave Buoy

11:50 - Sat 18th Apr 2015 All times are PDT. -7 hours from GMT.

  • Sig Wave height 9.5ft
  • Swell Direction
  • Peak Period 15s
  • Average Period 10s
  • Wind
    16mph, 18mph gusts
  • Sea Temp 61°f
  • Air Temp 60°f
  • Sea Pressure 1016.8mb
  • Tanner Bank - 121nm West Of San Diego, Ca
  • Tanner Bank - 121nm West Of San Diego, Ca

More Historic Weather Station data

Upgrade to MSW Pro to gain access to the past 30 days of data for over 8000 Wavebouys and Weather Stations around the globe.

Join Pro

Comparision Forecast

View Surf forecast
   
sam. 04/18 11:50 9.5ft 15s 10s 16 18 mph 1016.8mb 61f 60f
10:50 9ft 15s 11s 13 18 mph 1017.2mb 61f 60f
9:50 7.5ft 15s 11s 11 13 mph 1017.2mb 61f 61f
8:50 8ft 15s 11s 11 13 mph 1017.2mb 61f 61f
7:50 8ft 15s 11s 9 11 mph 1017.2mb 61f 60f
6:50 8ft 16s 11s 9 13 mph 1016.5mb 61f 61f
5:50 9ft 16s 12s 9
mph
1016.5mb 61f 60f
4:50 9ft 16s 12s 9
mph
1016.3mb 61f 61f
3:50 8ft 16s 11s 9 11 mph 1016.6mb 61f 61f
2:50 7.5ft 15s 11s 9 11 mph 1016.8mb 61f 61f
1:50 7.5ft 16s 11s 9 11 mph 1016.8mb 61f 61f
12:50 7.5ft 16s 10s 11 13 mph 1017.5mb 61f 61f
ven. 04/17 11:50 7ft 17s 10s 9 11 mph 1017.7mb 61f 61f
10:50 9ft 16s 11s 11 13 mph 1017.3mb 61f 61f
9:50 8.5ft 17s 11s 13 16 mph 1017mb 62f 61f
8:50 8.5ft 17s 12s 11 13 mph 1016.4mb 62f 61f
7:50 8ft 16s 11s 11 16 mph 1015.7mb 62f 61f
6:50 9ft 17s 12s 13 16 mph 1016.1mb 62f 62f
5:50 8.5ft 17s 12s 11 13 mph 1016.3mb 62f 61f
4:50 7.5ft 17s 11s 9 11 mph 1016.3mb 63f 59f
3:50 7ft 17s 10s 9 11 mph 1016.7mb 63f 60f
2:50 8.5ft 17s 11s 9 11 mph 1017.4mb 63f 62f
1:50 8ft 17s 11s 9 11 mph 1017.8mb 62f 61f
12:50 8.5ft 19s 11s 7 11 mph 1018.2mb 62f 61f
11:50 10ft 19s 12s 9
mph
1018.5mb 62f 61f
10:50 9ft 19s 11s 7 9 mph 1018.2mb 62f 61f
9:50 9ft 19s 11s 7
mph
1017.9mb 61f 60f
8:50 8ft 19s 10s 4
mph
1017.4mb 61f 60f
7:50 9ft 19s 11s 4
mph
1017mb 61f 60f
6:50 8.5ft 19s 11s 7
mph
1016.9mb 61f 60f
5:50 8ft 19s 11s 2 4 mph 1016.6mb 61f 60f
4:50 7.5ft 21s 10s 2 4 mph 1016.5mb 61f 60f
3:50 9ft 21s 11s 4 7 mph 1016.5mb 61f 59f
2:50 8.5ft 21s 10s 7
mph
1016.7mb 62f 60f
1:50 8.5ft 11s 10s 4 7 mph 1016.9mb 62f 60f
12:50 8ft 11s 9s 2 4 mph 1017.2mb 62f 60f
jeu. 04/16 11:50 8ft 11s 9s 2 4 mph 1017.1mb 62f 60f
10:50 8.5ft 11s 9s 2 4 mph 1016.8mb 62f 61f
9:50 8.5ft 12s 9s 2 4 mph 1016.4mb 62f 61f
8:50 7.5ft 12s 9s 2 4 mph 1015.6mb 62f 61f
7:50 8ft 13s 9s 2
mph
1014.9mb 62f 62f
6:50 8ft 11s 9s 2
mph
1014.8mb 62f 63f
5:50 8.5ft 11s 9s  -  2 mph 1014.7mb 62f 63f
4:50 8ft 11s 9s 2 4 mph 1014.8mb 62f 63f
3:50 10ft 12s 9s 4 7 mph 1015mb 62f 62f
2:50 9ft 12s 9s 7 9 mph 1015.6mb 62f 62f
1:50 10.5ft 11s 9s 7 9 mph 1015.9mb 62f 61f
12:50 11ft 11s 9s 9 11 mph 1016mb 62f 61f
11:50 12ft 12s 9s 9
mph
1016.2mb 61f 60f
10:50 10ft 11s 9s 4 7 mph 1016.2mb 61f 59f
9:50 11ft 11s 9s 2 4 mph 1015.2mb 60f 59f
8:50 10.5ft 11s 8s 2 4 mph 1014.8mb 60f 59f
7:50 10.5ft 10s 9s 2 4 mph 1014.5mb 60f 59f
6:50 9.5ft 11s 8s 4 7 mph 1013.6mb 59f 58f
5:50 11ft 11s 9s 4 7 mph 1013.1mb 59f 58f
4:50 10.5ft 11s 8s 4 7 mph 1012.9mb 59f 58f
3:50 11.5ft 11s 8s 7 9 mph 1013mb 59f 58f
2:50 10ft 11s 7s 9 11 mph 1013.1mb 59f 59f
1:50 10.5ft 11s 7s 13 16 mph 1013.6mb 59f 59f
12:50 11ft 11s 7s 16 20 mph 1013.7mb 60f 59f
mer. 04/15 11:50 11ft 12s 7s 20 25 mph 1013.4mb 60f 59f
10:50 12ft 12s 7s 22 27 mph 1013.1mb 59f 59f
9:50 11ft 11s 7s 22 27 mph 1013.3mb 59f 60f
8:50 11.5ft 12s 7s 25 29 mph 1012.6mb 59f 59f
7:50 10ft 11s 7s 25 27 mph 1012.5mb 59f 60f
6:50 10.5ft 11s 7s 22 27 mph 1012.5mb 60f 60f
5:50 11ft 11s 8s 20 25 mph 1012.9mb 60f 60f
4:50 10.5ft 10s 8s 18 25 mph 1013.6mb 60f 60f
3:50 11ft 11s 8s 18 22 mph 1014mb 60f 60f
2:50 11ft 11s 8s 18 22 mph 1014.7mb 60f 60f
1:50 13ft 12s 9s 18 22 mph 1015mb 60f 60f
12:50 12ft 12s 8s 16 20 mph 1015.2mb 60f 60f
11:50 13ft 11s 8s 13 18 mph 1015.5mb 59f 60f
10:50 14ft 11s 8s 16 20 mph 1015.4mb 59f 59f
9:50 13ft 11s 8s 18 22 mph 1015.1mb 59f 59f
8:50 13ft 11s 8s 20 25 mph 1015mb 59f 59f
7:50 13ft 11s 8s 20 27 mph 1014.6mb 59f 59f
6:50  -   -   -  25 29 mph 1013.8mb 59f 59f
5:50 13.5ft 11s 7s 27 36 mph 1013.7mb 59f 59f
4:50 14.5ft 11s 8s 27 31 mph 1013.8mb 59f 59f
3:50 15ft 11s 8s 29 38 mph 1013.8mb 59f 59f
2:50 15.5ft 11s 8s 20 29 mph 1015.3mb 59f 59f
1:50  -   -   -  25 29 mph 1015.5mb 60f 59f
12:50 15.5ft 10s 7s 27 34 mph 1015.2mb 60f 59f
mar. 04/14 11:50 14.5ft 10s 7s 27 34 mph 1015.8mb 60f 59f
10:50  -   -   -  29 34 mph 1016mb 60f 59f
9:50 14.5ft 9s 7s 29 38 mph 1016mb 60f 59f
8:50  -   -   -  29 34 mph 1015.9mb 60f 59f